Time;durP1;ratioP1;P1;durP2;ratioP2;P2;SDS_P1;SDS_P2;PMS_P1;PMS_P2;Temp;Humidity;BMP_temperature;BMP_pressure;BME280_temperature;BME280_humidity;BME280_pressure;Samples;Min_cycle;Max_cycle;Signal;HPM_P1;HPM_P2
2024/01/20 00:01:59;;;;;;;0.00;0.00;;;1.70;89.80;;;;;;4989660;28;20042;-68
2024/01/20 00:04:25;;;;;;;2.00;1.85;;;1.60;89.80;;;;;;4996774;28;20762;-68
2024/01/20 00:06:51;;;;;;;0.00;0.00;;;1.60;89.80;;;;;;4989311;28;20096;-68
2024/01/20 00:09:17;;;;;;;0.00;0.00;;;1.70;89.80;;;;;;4993517;28;20088;-69
2024/01/20 00:11:42;;;;;;;0.38;0.38;;;1.70;89.60;;;;;;5003656;28;20566;-68
2024/01/20 00:14:08;;;;;;;0.00;0.00;;;1.70;89.60;;;;;;4989055;28;20138;-68
2024/01/20 00:16:34;;;;;;;1.45;1.35;;;1.70;89.80;;;;;;5000663;28;20565;-69
2024/01/20 00:18:59;;;;;;;0.00;0.00;;;1.80;89.70;;;;;;5000725;28;20121;-68
2024/01/20 00:21:25;;;;;;;0.10;0.10;;;1.80;89.60;;;;;;4991982;28;20129;-68
2024/01/20 00:23:51;;;;;;;0.00;0.00;;;1.90;89.50;;;;;;5002775;28;20045;-68
2024/01/20 00:26:16;;;;;;;0.57;0.57;;;1.70;89.50;;;;;;5005739;28;20042;-68
2024/01/20 00:28:42;;;;;;;0.00;0.00;;;1.80;89.50;;;;;;4991491;28;20196;-69
2024/01/20 00:31:08;;;;;;;0.00;0.00;;;1.80;89.50;;;;;;4992105;28;20042;-68
2024/01/20 00:33:33;;;;;;;0.00;0.00;;;1.80;89.40;;;;;;4998150;28;20458;-69
2024/01/20 00:35:59;;;;;;;1.50;1.45;;;1.90;89.40;;;;;;4993187;28;20042;-68
2024/01/20 00:38:25;;;;;;;0.10;0.10;;;1.80;89.40;;;;;;4986064;28;20531;-69
2024/01/20 00:40:52;;;;;;;0.00;0.00;;;1.90;89.40;;;;;;4992602;28;20096;-68
2024/01/20 00:43:18;;;;;;;0.00;0.00;;;1.90;89.20;;;;;;5006221;28;20057;-68
2024/01/20 00:45:45;;;;;;;0.10;0.10;;;1.90;89.30;;;;;;5002684;28;20038;-68
2024/01/20 00:48:13;;;;;;;0.00;0.00;;;1.90;89.30;;;;;;4987177;28;20058;-69
2024/01/20 00:50:39;;;;;;;0.00;0.00;;;1.80;89.30;;;;;;4994345;28;20081;-69
2024/01/20 00:53:04;;;;;;;0.10;0.10;;;1.90;89.30;;;;;;5000512;28;20128;-69
2024/01/20 00:55:30;;;;;;;0.98;0.98;;;1.90;89.20;;;;;;5006665;28;20037;-68
2024/01/20 00:57:55;;;;;;;0.00;0.00;;;1.80;89.20;;;;;;4994186;28;20061;-69
2024/01/20 01:00:21;;;;;;;0.00;0.00;;;1.90;89.10;;;;;;4991535;28;20042;-69
2024/01/20 01:02:47;;;;;;;0.00;0.00;;;1.90;89.20;;;;;;4999869;28;20042;-69
2024/01/20 01:05:13;;;;;;;0.08;0.08;;;1.80;89.10;;;;;;4999486;28;20056;-68
2024/01/20 01:07:38;;;;;;;0.30;0.30;;;1.90;89.20;;;;;;4997922;28;20112;-69
2024/01/20 01:10:06;;;;;;;0.00;0.00;;;1.80;89.00;;;;;;4986841;28;20161;-69
2024/01/20 01:12:32;;;;;;;0.73;0.70;;;1.90;88.90;;;;;;4988467;28;20109;-68
2024/01/20 01:14:58;;;;;;;0.00;0.00;;;1.80;88.90;;;;;;5000855;28;20458;-68
2024/01/20 01:17:24;;;;;;;0.00;0.00;;;1.80;88.90;;;;;;4990776;28;20045;-69
2024/01/20 01:19:49;;;;;;;0.00;0.00;;;1.80;89.00;;;;;;4987821;28;20062;-69
2024/01/20 01:22:15;;;;;;;0.00;0.00;;;1.90;89.00;;;;;;5002351;28;20084;-69
2024/01/20 01:24:41;;;;;;;0.00;0.00;;;1.90;89.00;;;;;;4989229;28;20125;-68
2024/01/20 01:27:07;;;;;;;0.00;0.00;;;1.90;89.00;;;;;;4990668;28;20427;-69
2024/01/20 01:29:33;;;;;;;0.00;0.00;;;2.00;89.00;;;;;;4986986;28;20523;-68
2024/01/20 01:31:59;;;;;;;0.00;0.00;;;1.90;88.90;;;;;;4998239;28;20077;-68
2024/01/20 01:34:24;;;;;;;0.00;0.00;;;1.90;88.90;;;;;;4999468;28;20049;-68
2024/01/20 01:36:50;;;;;;;0.00;0.00;;;2.00;88.80;;;;;;4994860;28;20038;-68
2024/01/20 01:39:17;;;;;;;0.00;0.00;;;2.00;88.80;;;;;;4991864;28;20514;-69
2024/01/20 01:41:43;;;;;;;0.00;0.00;;;1.90;88.80;;;;;;4991749;28;20057;-69
2024/01/20 01:44:09;;;;;;;0.00;0.00;;;1.90;88.70;;;;;;4993864;28;20834;-69
2024/01/20 01:46:35;;;;;;;0.00;0.00;;;1.90;88.70;;;;;;4996728;28;20145;-69
2024/01/20 01:49:01;;;;;;;0.00;0.00;;;1.80;88.70;;;;;;4997852;28;20129;-69
2024/01/20 01:51:28;;;;;;;0.00;0.00;;;1.70;88.60;;;;;;5006718;28;20092;-69
2024/01/20 01:53:54;;;;;;;0.10;0.10;;;1.70;88.60;;;;;;5004335;28;20038;-69
2024/01/20 01:56:20;;;;;;;0.10;0.10;;;1.60;88.30;;;;;;4995659;28;20403;-68
2024/01/20 01:58:46;;;;;;;0.00;0.00;;;1.60;88.40;;;;;;4990669;28;20050;-69
2024/01/20 02:01:12;;;;;;;0.00;0.00;;;1.60;88.50;;;;;;4992101;28;20056;-68
2024/01/20 02:03:39;;;;;;;0.10;0.10;;;1.60;88.50;;;;;;4977073;28;20577;-69
2024/01/20 02:06:06;;;;;;;0.00;0.00;;;1.50;88.50;;;;;;4994092;28;20089;-68
2024/01/20 02:08:31;;;;;;;0.10;0.10;;;1.50;88.60;;;;;;4995860;28;20050;-69
2024/01/20 02:10:57;;;;;;;17.27;1.77;;;1.50;88.60;;;;;;4998020;28;20132;-68
2024/01/20 02:13:23;;;;;;;0.00;0.00;;;1.50;88.80;;;;;;4991294;28;20034;-69
2024/01/20 02:15:49;;;;;;;0.10;0.10;;;1.60;89.00;;;;;;4996481;28;20038;-69
2024/01/20 02:18:14;;;;;;;0.10;0.10;;;1.60;88.90;;;;;;4990624;28;20057;-69
2024/01/20 02:20:40;;;;;;;0.00;0.00;;;1.60;88.90;;;;;;5001992;28;20046;-68
2024/01/20 02:23:06;;;;;;;0.00;0.00;;;1.70;89.00;;;;;;4985451;28;20043;-68
2024/01/20 02:25:32;;;;;;;0.15;0.15;;;1.70;88.90;;;;;;4990683;28;20499;-68
2024/01/20 02:27:58;;;;;;;6.13;1.30;;;1.70;88.80;;;;;;4992518;28;20419;-69
2024/01/20 02:30:24;;;;;;;0.00;0.00;;;1.70;88.70;;;;;;4996466;28;20281;-68
2024/01/20 02:32:49;;;;;;;0.00;0.00;;;1.80;88.70;;;;;;4989661;28;20057;-68
2024/01/20 02:35:18;;;;;;;0.10;0.10;;;1.80;88.70;;;;;;5000853;28;20050;-68
2024/01/20 02:37:44;;;;;;;0.00;0.00;;;1.80;88.60;;;;;;4990496;28;20061;-69
2024/01/20 02:40:10;;;;;;;0.03;0.03;;;1.80;88.60;;;;;;5002014;28;20050;-68
2024/01/20 02:42:36;;;;;;;0.00;0.00;;;1.80;88.60;;;;;;4982228;28;20347;-68
2024/01/20 02:45:02;;;;;;;0.15;0.15;;;1.90;88.50;;;;;;4979270;28;20087;-69
2024/01/20 02:47:28;;;;;;;0.10;0.10;;;1.80;88.60;;;;;;4986570;28;20497;-69
2024/01/20 02:49:53;;;;;;;0.00;0.00;;;1.90;88.60;;;;;;4998130;28;20046;-68
2024/01/20 02:52:19;;;;;;;0.00;0.00;;;1.80;88.60;;;;;;5008851;28;20132;-69
2024/01/20 02:54:45;;;;;;;0.10;0.10;;;1.80;88.60;;;;;;5000805;28;20074;-69
2024/01/20 02:57:10;;;;;;;0.00;0.00;;;1.80;88.60;;;;;;4988773;28;20050;-68
2024/01/20 02:59:36;;;;;;;0.05;0.05;;;1.80;88.30;;;;;;4988998;28;20078;-69
2024/01/20 03:02:02;;;;;;;0.00;0.00;;;1.70;88.30;;;;;;4989718;28;20090;-70
2024/01/20 03:04:28;;;;;;;0.10;0.10;;;1.60;88.50;;;;;;4992683;28;20049;-68
2024/01/20 03:06:54;;;;;;;0.00;0.00;;;1.50;88.70;;;;;;4979542;28;20071;-69
2024/01/20 03:09:20;;;;;;;0.10;0.10;;;1.50;88.70;;;;;;4991921;28;20100;-68
2024/01/20 03:11:45;;;;;;;0.10;0.10;;;1.40;88.80;;;;;;4989335;28;20057;-68
2024/01/20 03:14:12;;;;;;;0.05;0.05;;;1.40;88.90;;;;;;4991528;28;20039;-68
2024/01/20 03:16:38;;;;;;;0.00;0.00;;;1.40;88.80;;;;;;4993861;28;20045;-69
2024/01/20 03:19:04;;;;;;;0.47;0.47;;;1.40;88.90;;;;;;4989057;28;20042;-68
2024/01/20 03:21:30;;;;;;;0.63;0.63;;;1.20;89.10;;;;;;4997267;28;20061;-68
2024/01/20 03:23:56;;;;;;;0.20;0.20;;;1.30;89.10;;;;;;4989236;28;20042;-68
2024/01/20 03:26:22;;;;;;;0.10;0.10;;;1.30;89.20;;;;;;4995182;28;20112;-68
2024/01/20 03:28:48;;;;;;;0.30;0.30;;;1.30;89.10;;;;;;4991194;28;20457;-68
2024/01/20 03:31:14;;;;;;;1.13;1.02;;;1.30;89.50;;;;;;4995687;28;20458;-68
2024/01/20 03:33:40;;;;;;;0.57;0.57;;;1.30;89.50;;;;;;4996913;28;20064;-69
2024/01/20 03:36:06;;;;;;;0.30;0.30;;;1.30;89.50;;;;;;4978938;28;20582;-68
2024/01/20 03:38:31;;;;;;;0.10;0.10;;;1.30;89.50;;;;;;4988707;28;20045;-69
2024/01/20 03:40:57;;;;;;;0.10;0.10;;;1.20;89.50;;;;;;4987964;28;20061;-69
2024/01/20 03:43:23;;;;;;;0.10;0.10;;;1.20;89.50;;;;;;4988823;28;20458;-69
2024/01/20 03:45:49;;;;;;;0.00;0.00;;;1.20;89.50;;;;;;5003140;28;20049;-69
2024/01/20 03:48:15;;;;;;;0.35;0.17;;;1.20;89.50;;;;;;4986675;28;20089;-69
2024/01/20 03:50:40;;;;;;;0.00;0.00;;;1.20;89.50;;;;;;4987575;28;20133;-69
2024/01/20 03:53:06;;;;;;;0.10;0.10;;;1.10;89.50;;;;;;4988639;28;20148;-69
2024/01/20 03:55:32;;;;;;;0.10;0.10;;;1.20;89.40;;;;;;4992372;28;20034;-69
2024/01/20 03:57:58;;;;;;;0.30;0.30;;;1.20;89.40;;;;;;4999574;28;20499;-69
2024/01/20 04:00:23;;;;;;;0.10;0.10;;;1.10;89.50;;;;;;4999533;28;20085;-69
2024/01/20 04:02:49;;;;;;;0.10;0.10;;;1.10;89.70;;;;;;4988077;28;20471;-69
2024/01/20 04:05:15;;;;;;;1.30;1.20;;;1.10;89.80;;;;;;4987443;28;20034;-69
2024/01/20 04:07:42;;;;;;;0.15;0.15;;;1.10;89.90;;;;;;4985221;28;20068;-69
2024/01/20 04:10:08;;;;;;;1.05;0.95;;;1.10;89.80;;;;;;5003457;28;20053;-69
2024/01/20 04:12:36;;;;;;;0.00;0.00;;;1.10;89.90;;;;;;5006487;28;20054;-69
2024/01/20 04:15:01;;;;;;;0.10;0.10;;;1.10;89.90;;;;;;4992968;28;20050;-69
2024/01/20 04:17:27;;;;;;;0.15;0.15;;;1.00;90.10;;;;;;4987384;28;20824;-69
2024/01/20 04:19:52;;;;;;;0.10;0.10;;;1.00;90.10;;;;;;4988142;28;20038;-69
2024/01/20 04:22:18;;;;;;;1.80;1.70;;;1.00;90.10;;;;;;4998310;28;20034;-69
2024/01/20 04:24:44;;;;;;;0.13;0.13;;;1.10;90.20;;;;;;4995476;28;20046;-69
2024/01/20 04:27:09;;;;;;;0.10;0.10;;;1.00;90.10;;;;;;4989454;28;20053;-69
2024/01/20 04:29:35;;;;;;;0.03;0.03;;;1.10;90.20;;;;;;5001811;28;20052;-69
2024/01/20 04:32:01;;;;;;;0.10;0.10;;;1.00;90.40;;;;;;4989032;28;20511;-69
2024/01/20 04:34:27;;;;;;;1.15;1.10;;;1.10;90.50;;;;;;4983742;28;20408;-69
2024/01/20 04:36:53;;;;;;;0.55;0.50;;;1.00;90.30;;;;;;4993221;28;20137;-69
2024/01/20 04:39:18;;;;;;;0.03;0.03;;;0.90;90.40;;;;;;4989482;28;20140;-68
2024/01/20 04:41:44;;;;;;;8.27;3.72;;;1.00;90.30;;;;;;4977391;28;20433;-69
2024/01/20 04:44:10;;;;;;;7.80;3.55;;;1.00;90.30;;;;;;4990439;28;20559;-69
2024/01/20 04:46:35;;;;;;;0.25;0.25;;;1.00;90.30;;;;;;5002695;28;20045;-69
2024/01/20 04:49:01;;;;;;;0.10;0.10;;;0.90;90.40;;;;;;4992035;28;20056;-69
2024/01/20 04:51:27;;;;;;;0.08;0.08;;;1.00;90.40;;;;;;4986104;28;20088;-69
2024/01/20 04:53:52;;;;;;;0.20;0.20;;;1.00;90.40;;;;;;4988423;28;20054;-69
2024/01/20 04:56:19;;;;;;;0.63;0.63;;;0.90;90.40;;;;;;4988177;28;20042;-69
2024/01/20 04:58:46;;;;;;;0.68;0.68;;;1.00;90.60;;;;;;4988707;28;20046;-69
2024/01/20 05:01:11;;;;;;;0.10;0.10;;;1.00;90.40;;;;;;4989192;28;20042;-69
2024/01/20 05:03:37;;;;;;;0.38;0.38;;;1.00;90.30;;;;;;4988782;28;20069;-69
2024/01/20 05:06:04;;;;;;;0.30;0.30;;;1.10;90.00;;;;;;4988410;28;20827;-69
2024/01/20 05:08:30;;;;;;;0.30;0.30;;;1.10;90.00;;;;;;4996954;28;20128;-69
2024/01/20 05:10:55;;;;;;;0.10;0.10;;;1.10;90.20;;;;;;5007941;28;20038;-69
2024/01/20 05:13:21;;;;;;;0.08;0.08;;;1.10;90.10;;;;;;5000461;28;20488;-69
2024/01/20 05:15:47;;;;;;;0.10;0.10;;;1.00;90.10;;;;;;4999156;28;20495;-69
2024/01/20 05:18:12;;;;;;;0.30;0.30;;;1.00;90.10;;;;;;4988958;28;20454;-69
2024/01/20 05:20:38;;;;;;;0.13;0.13;;;0.90;90.00;;;;;;4992845;28;20526;-69
2024/01/20 05:23:04;;;;;;;0.45;0.40;;;1.00;90.20;;;;;;5003602;28;20038;-69
2024/01/20 05:25:29;;;;;;;0.10;0.10;;;0.80;90.10;;;;;;4988507;28;20046;-69
2024/01/20 05:27:55;;;;;;;0.63;0.63;;;0.90;90.20;;;;;;4998444;28;20045;-69
2024/01/20 05:30:21;;;;;;;1.83;1.73;;;0.90;90.20;;;;;;4997761;28;20125;-69
2024/01/20 05:32:47;;;;;;;0.38;0.38;;;0.90;90.10;;;;;;4987267;28;20058;-69
2024/01/20 05:35:13;;;;;;;0.00;0.00;;;0.90;90.00;;;;;;4989807;28;20046;-69
2024/01/20 05:37:38;;;;;;;0.13;0.13;;;0.90;90.10;;;;;;4994815;28;20418;-69
2024/01/20 05:40:05;;;;;;;0.10;0.10;;;0.80;90.10;;;;;;4993188;28;20072;-68
2024/01/20 05:42:30;;;;;;;0.50;0.50;;;0.90;90.20;;;;;;5006415;28;20093;-69
2024/01/20 05:44:57;;;;;;;0.10;0.10;;;0.80;90.20;;;;;;4993350;28;20443;-69
2024/01/20 05:47:22;;;;;;;0.47;0.47;;;0.80;90.30;;;;;;4988417;28;20045;-69
2024/01/20 05:49:48;;;;;;;0.20;0.20;;;0.90;90.10;;;;;;4999009;28;20072;-69
2024/01/20 05:52:13;;;;;;;0.00;0.00;;;0.90;90.10;;;;;;4987150;28;20519;-70
2024/01/20 05:54:39;;;;;;;0.45;0.45;;;0.80;90.20;;;;;;4978789;28;20432;-69
2024/01/20 05:57:05;;;;;;;0.20;0.20;;;0.70;90.10;;;;;;4992941;28;20557;-69
2024/01/20 05:59:31;;;;;;;0.10;0.10;;;0.80;90.20;;;;;;4991173;28;20158;-69
2024/01/20 06:01:56;;;;;;;0.40;0.40;;;0.70;90.20;;;;;;4986646;28;20419;-69
2024/01/20 06:04:22;;;;;;;8.05;1.75;;;0.70;90.10;;;;;;5002677;28;20061;-69
2024/01/20 06:06:48;;;;;;;0.40;0.40;;;0.70;90.10;;;;;;4987849;28;20077;-69
2024/01/20 06:09:14;;;;;;;0.00;0.00;;;0.70;90.20;;;;;;4986798;28;20509;-69
2024/01/20 06:11:41;;;;;;;0.10;0.10;;;0.70;90.20;;;;;;4987245;28;20066;-68
2024/01/20 06:14:07;;;;;;;0.10;0.10;;;0.70;90.20;;;;;;4989017;28;20121;-69
2024/01/20 06:16:35;;;;;;;0.10;0.10;;;0.70;90.30;;;;;;4995562;28;20057;-69
2024/01/20 06:19:01;;;;;;;2.28;2.17;;;0.70;90.30;;;;;;4988355;28;20523;-69
2024/01/20 06:21:27;;;;;;;0.10;0.10;;;0.70;90.30;;;;;;5001084;28;20053;-69
2024/01/20 06:23:53;;;;;;;0.90;0.90;;;0.60;90.40;;;;;;4989040;28;20418;-69
2024/01/20 06:26:19;;;;;;;0.40;0.40;;;0.70;90.40;;;;;;4999241;28;20042;-69
2024/01/20 06:28:44;;;;;;;0.70;0.70;;;0.70;90.50;;;;;;5002375;28;20077;-69
2024/01/20 06:31:27;;;;;;;0.10;0.10;;;0.70;90.50;;;;;;4989836;28;20050;-69
2024/01/20 06:33:53;;;;;;;0.10;0.10;;;0.70;90.40;;;;;;4994964;28;20069;-69
2024/01/20 06:36:21;;;;;;;0.38;0.38;;;0.70;90.50;;;;;;5009160;28;20042;-69
2024/01/20 06:38:48;;;;;;;0.10;0.10;;;0.70;90.50;;;;;;5000689;28;20934;-69
2024/01/20 06:41:14;;;;;;;0.08;0.08;;;0.70;90.50;;;;;;4989535;28;20073;-69
2024/01/20 06:43:40;;;;;;;0.10;0.10;;;0.70;90.40;;;;;;4990044;28;20212;-69
2024/01/20 06:46:05;;;;;;;0.10;0.10;;;0.60;90.40;;;;;;4993698;28;20129;-69
2024/01/20 06:48:33;;;;;;;0.20;0.20;;;0.70;90.40;;;;;;4989103;28;20129;-69
2024/01/20 06:51:00;;;;;;;0.10;0.10;;;0.70;90.40;;;;;;4976904;28;20396;-69
2024/01/20 06:53:29;;;;;;;0.10;0.10;;;0.70;90.40;;;;;;4988128;28;20050;-69
2024/01/20 06:55:55;;;;;;;0.10;0.10;;;0.70;90.40;;;;;;4984798;28;20057;-69
2024/01/20 06:58:23;;;;;;;2.53;2.28;;;0.70;90.50;;;;;;4986764;28;20050;-70
2024/01/20 07:00:49;;;;;;;1.88;1.23;;;0.70;90.40;;;;;;4985678;28;20535;-68
2024/01/20 07:03:15;;;;;;;1.92;1.75;;;0.70;90.50;;;;;;4985441;28;20575;-69
2024/01/20 07:05:41;;;;;;;0.63;0.63;;;0.80;90.40;;;;;;5002085;28;20062;-69
2024/01/20 07:08:06;;;;;;;0.00;0.00;;;0.80;90.40;;;;;;4987583;28;20073;-69
2024/01/20 07:10:32;;;;;;;0.00;0.00;;;0.70;90.50;;;;;;4985388;28;20508;-69
2024/01/20 07:12:58;;;;;;;1.00;0.95;;;0.70;90.70;;;;;;4985542;28;20442;-71
2024/01/20 07:15:24;;;;;;;5.13;2.20;;;0.80;90.60;;;;;;4986525;28;20042;-69
2024/01/20 07:17:50;;;;;;;0.00;0.00;;;0.80;90.60;;;;;;4984936;28;20411;-69
2024/01/20 07:20:15;;;;;;;0.10;0.10;;;0.70;90.60;;;;;;4986008;28;20034;-68
2024/01/20 07:22:41;;;;;;;1.85;1.25;;;0.80;90.80;;;;;;4984563;28;20054;-69
2024/01/20 07:25:08;;;;;;;0.05;0.05;;;0.80;90.90;;;;;;4986770;28;20050;-69
2024/01/20 07:27:34;;;;;;;0.05;0.05;;;0.90;91.00;;;;;;4982417;28;20038;-69
2024/01/20 07:30:00;;;;;;;0.10;0.10;;;0.90;90.90;;;;;;4992890;28;20054;-69
2024/01/20 07:32:26;;;;;;;0.15;0.15;;;0.90;91.00;;;;;;4990943;28;20058;-69
2024/01/20 07:34:52;;;;;;;0.10;0.10;;;0.90;91.00;;;;;;5002257;28;20052;-69
2024/01/20 07:37:18;;;;;;;0.10;0.10;;;0.90;91.00;;;;;;4994759;28;20191;-68
2024/01/20 07:39:43;;;;;;;0.10;0.10;;;0.90;91.10;;;;;;5000222;28;20050;-69
2024/01/20 07:42:10;;;;;;;0.30;0.30;;;1.00;91.20;;;;;;4987254;28;20479;-69
2024/01/20 07:44:36;;;;;;;0.55;0.52;;;0.90;91.10;;;;;;4987153;28;20049;-68
2024/01/20 07:47:02;;;;;;;0.25;0.25;;;1.00;91.10;;;;;;4990508;28;20034;-69
2024/01/20 07:49:28;;;;;;;0.40;0.40;;;1.00;91.20;;;;;;4988338;28;20211;-69
2024/01/20 07:51:54;;;;;;;0.15;0.15;;;1.10;91.10;;;;;;4997744;28;20495;-69
2024/01/20 07:54:19;;;;;;;0.15;0.15;;;1.00;91.00;;;;;;4981725;28;20054;-68
2024/01/20 07:56:45;;;;;;;0.32;0.32;;;0.90;91.10;;;;;;4982696;28;20518;-69
2024/01/20 07:59:11;;;;;;;0.55;0.55;;;1.00;91.10;;;;;;4985311;28;20072;-69
2024/01/20 08:01:36;;;;;;;0.08;0.08;;;1.00;91.00;;;;;;4986736;28;20070;-69
2024/01/20 08:04:03;;;;;;;0.80;0.80;;;1.10;90.90;;;;;;4985939;28;20041;-69
2024/01/20 08:06:28;;;;;;;0.30;0.30;;;1.20;91.10;;;;;;4983842;28;20069;-69
2024/01/20 08:08:54;;;;;;;0.43;0.40;;;1.10;91.00;;;;;;4984843;28;20733;-69
2024/01/20 08:11:21;;;;;;;11.18;1.35;;;1.20;90.90;;;;;;4979687;28;20045;-69
2024/01/20 08:13:47;;;;;;;0.10;0.10;;;1.10;91.00;;;;;;4947287;28;20046;-69
2024/01/20 08:16:13;;;;;;;0.30;0.30;;;1.00;91.10;;;;;;4985431;28;20049;-70
2024/01/20 08:18:38;;;;;;;0.15;0.15;;;1.10;91.10;;;;;;4991072;28;20088;-72
2024/01/20 08:21:06;;;;;;;0.10;0.10;;;1.10;91.20;;;;;;4986854;28;20496;-69
2024/01/20 08:23:33;;;;;;;0.10;0.10;;;1.10;91.00;;;;;;4984322;28;20061;-68
2024/01/20 08:25:58;;;;;;;0.03;0.03;;;1.20;91.00;;;;;;4986927;28;20395;-69
2024/01/20 08:28:24;;;;;;;0.95;0.88;;;1.20;91.00;;;;;;4985591;28;20054;-69
2024/01/20 08:30:50;;;;;;;0.30;0.30;;;1.20;91.00;;;;;;4983804;28;20476;-69
2024/01/20 08:33:16;;;;;;;0.10;0.10;;;1.30;91.00;;;;;;4985908;28;20054;-69
2024/01/20 08:35:41;;;;;;;1.48;1.42;;;1.40;90.80;;;;;;4998871;28;20116;-69
2024/01/20 08:38:07;;;;;;;0.43;0.43;;;1.40;90.90;;;;;;4991413;28;20046;-69
2024/01/20 08:40:33;;;;;;;2.53;0.93;;;1.40;90.80;;;;;;4986894;28;20065;-68
2024/01/20 08:42:58;;;;;;;0.10;0.10;;;1.40;90.80;;;;;;4984959;28;20042;-68
2024/01/20 08:45:24;;;;;;;2.47;0.93;;;1.40;91.00;;;;;;4992312;28;20052;-69
2024/01/20 08:47:50;;;;;;;0.10;0.10;;;1.40;91.00;;;;;;4991280;28;20031;-68
2024/01/20 08:50:15;;;;;;;0.13;0.13;;;1.50;91.00;;;;;;4983837;28;20042;-68
2024/01/20 08:52:41;;;;;;;0.10;0.10;;;1.50;91.00;;;;;;4984913;28;20038;-68
2024/01/20 08:55:07;;;;;;;0.10;0.10;;;1.60;91.00;;;;;;4999158;28;20058;-68
2024/01/20 08:57:33;;;;;;;0.20;0.20;;;1.70;90.90;;;;;;4985854;28;20522;-68
2024/01/20 08:59:59;;;;;;;0.40;0.40;;;1.70;90.70;;;;;;4996412;28;20038;-69
2024/01/20 09:02:25;;;;;;;0.20;0.20;;;1.60;90.50;;;;;;4985883;28;20060;-69
2024/01/20 09:04:51;;;;;;;0.45;0.45;;;1.70;90.70;;;;;;4985719;28;20531;-68
2024/01/20 09:07:17;;;;;;;0.90;0.90;;;1.70;90.60;;;;;;4986420;28;20419;-69
2024/01/20 09:09:43;;;;;;;0.13;0.13;;;1.70;90.50;;;;;;4987387;28;20488;-68
2024/01/20 09:12:08;;;;;;;0.43;0.43;;;1.70;90.40;;;;;;5004358;28;20054;-69
2024/01/20 09:14:36;;;;;;;7.47;1.17;;;1.70;90.40;;;;;;4993890;28;20057;-68
2024/01/20 09:17:02;;;;;;;1.02;0.90;;;1.80;90.40;;;;;;4986693;28;20100;-68
2024/01/20 09:19:27;;;;;;;1.05;1.02;;;1.70;90.20;;;;;;4992885;28;20041;-68
2024/01/20 09:21:53;;;;;;;0.10;0.10;;;1.70;90.40;;;;;;4993783;28;20050;-69
2024/01/20 09:24:19;;;;;;;0.10;0.10;;;1.70;90.10;;;;;;4997689;28;20515;-69
2024/01/20 09:26:44;;;;;;;1.88;1.77;;;1.70;90.30;;;;;;4986050;28;20449;-69
2024/01/20 09:29:10;;;;;;;0.10;0.10;;;1.80;90.00;;;;;;4987528;28;20529;-70
2024/01/20 09:31:35;;;;;;;0.00;0.00;;;1.80;90.10;;;;;;4996212;28;20384;-69
2024/01/20 09:34:01;;;;;;;1.45;1.35;;;1.80;90.00;;;;;;4988424;28;20050;-68
2024/01/20 09:36:27;;;;;;;0.10;0.10;;;1.90;90.10;;;;;;4988424;28;20513;-69
2024/01/20 09:38:56;;;;;;;0.30;0.30;;;1.90;90.20;;;;;;4982854;28;20364;-69
2024/01/20 09:41:23;;;;;;;0.00;0.00;;;1.80;90.00;;;;;;4985571;28;20055;-69
2024/01/20 09:43:49;;;;;;;0.57;0.57;;;1.90;90.10;;;;;;4984698;28;20054;-68
2024/01/20 09:46:16;;;;;;;0.80;0.80;;;1.90;89.70;;;;;;4988214;28;20555;-69
2024/01/20 09:48:43;;;;;;;0.10;0.10;;;1.90;89.90;;;;;;4985102;28;20823;-68
2024/01/20 09:51:09;;;;;;;0.10;0.10;;;2.00;90.20;;;;;;4977387;28;20069;-69
2024/01/20 09:53:35;;;;;;;1.13;1.02;;;2.00;90.10;;;;;;4984976;28;20034;-68
2024/01/20 09:56:02;;;;;;;0.65;0.65;;;2.10;90.00;;;;;;4983651;28;20053;-69
2024/01/20 09:58:30;;;;;;;0.15;0.15;;;2.00;90.00;;;;;;4983988;28;20372;-69
2024/01/20 10:00:57;;;;;;;1.00;0.90;;;2.00;90.10;;;;;;4985074;28;20057;-69
2024/01/20 10:03:25;;;;;;;0.05;0.05;;;2.00;90.00;;;;;;4985463;28;20077;-68
2024/01/20 10:05:52;;;;;;;0.10;0.10;;;2.10;90.00;;;;;;4987336;28;20043;-69
2024/01/20 10:08:18;;;;;;;0.90;0.90;;;2.10;89.90;;;;;;4991515;28;20046;-69
2024/01/20 10:10:44;;;;;;;0.08;0.08;;;2.10;89.50;;;;;;4988617;28;20488;-69
2024/01/20 10:13:09;;;;;;;0.30;0.30;;;2.00;89.30;;;;;;4987532;28;20046;-68
2024/01/20 10:15:35;;;;;;;0.73;0.73;;;2.10;89.50;;;;;;4986788;28;20054;-68
2024/01/20 10:18:10;;;;;;;0.10;0.10;;;2.10;89.50;;;;;;4990084;28;20092;-67
2024/01/20 10:20:37;;;;;;;0.13;0.13;;;2.00;89.30;;;;;;4983115;28;20054;-68
2024/01/20 10:23:04;;;;;;;0.20;0.20;;;2.00;89.30;;;;;;4986641;28;20038;-68
2024/01/20 10:25:31;;;;;;;0.15;0.15;;;2.00;89.20;;;;;;4992258;28;20086;-68
2024/01/20 10:27:57;;;;;;;0.10;0.10;;;2.00;89.10;;;;;;4987523;28;20046;-68
2024/01/20 10:30:26;;;;;;;0.00;0.00;;;1.90;89.20;;;;;;4986772;28;20046;-70
2024/01/20 10:32:52;;;;;;;1.27;1.08;;;1.90;89.20;;;;;;4983976;28;20082;-67
2024/01/20 10:35:19;;;;;;;0.10;0.10;;;1.80;89.40;;;;;;4988257;28;20109;-68
2024/01/20 10:37:46;;;;;;;0.10;0.10;;;1.80;89.30;;;;;;4981432;28;20042;-67
2024/01/20 10:40:15;;;;;;;0.52;0.52;;;1.90;89.40;;;;;;4970493;28;20085;-68
2024/01/20 10:42:55;;;;;;;0.30;0.30;;;1.90;89.30;;;;;;4975062;28;20121;-67
2024/01/20 10:45:22;;;;;;;0.10;0.10;;;1.90;89.10;;;;;;4969630;28;20126;-67
2024/01/20 10:48:15;;;;;;;1.30;1.27;;;1.90;89.10;;;;;;4970551;28;20575;-68
2024/01/20 10:50:48;;;;;;;1.92;0.90;;;1.90;89.20;;;;;;4987931;28;20042;-68
2024/01/20 10:53:14;;;;;;;0.10;0.10;;;1.80;89.50;;;;;;4985612;28;20046;-68
2024/01/20 10:55:43;;;;;;;0.08;0.08;;;1.90;89.20;;;;;;4988016;28;20050;-68
2024/01/20 10:58:10;;;;;;;1.63;1.05;;;1.90;89.40;;;;;;4987838;28;20057;-68
2024/01/20 11:00:39;;;;;;;0.63;0.63;;;1.90;89.30;;;;;;4991862;28;20101;-68
2024/01/20 11:03:06;;;;;;;0.22;0.22;;;1.80;89.30;;;;;;4985873;28;20121;-68
2024/01/20 11:05:33;;;;;;;0.10;0.10;;;1.90;89.40;;;;;;4981965;28;20507;-69
2024/01/20 11:08:04;;;;;;;0.08;0.08;;;1.80;89.30;;;;;;4988382;28;20093;-68
2024/01/20 11:10:30;;;;;;;0.97;0.97;;;1.80;89.50;;;;;;4988167;28;20039;-68
2024/01/20 11:13:05;;;;;;;0.00;0.00;;;1.80;89.50;;;;;;4977174;28;20050;-67
2024/01/20 11:15:33;;;;;;;0.20;0.20;;;1.90;89.60;;;;;;4983506;28;20050;-68
2024/01/20 11:17:59;;;;;;;3.30;1.75;;;1.80;89.10;;;;;;4985169;28;20113;-67
2024/01/20 11:20:26;;;;;;;0.45;0.45;;;1.90;89.40;;;;;;4981831;28;20070;-67
2024/01/20 11:22:54;;;;;;;0.10;0.10;;;1.90;89.50;;;;;;4999922;28;20416;-67
2024/01/20 11:25:22;;;;;;;0.10;0.10;;;1.80;89.60;;;;;;4985948;28;20066;-67
2024/01/20 11:27:54;;;;;;;0.10;0.10;;;1.90;89.60;;;;;;4984801;28;20078;-67
2024/01/20 11:30:33;;;;;;;0.10;0.10;;;2.00;89.60;;;;;;4989063;28;20073;-67
2024/01/20 11:32:59;;;;;;;0.45;0.45;;;1.90;89.30;;;;;;4987831;28;20046;-67
2024/01/20 11:35:25;;;;;;;0.75;0.75;;;2.00;89.30;;;;;;4986017;28;20046;-67
2024/01/20 11:37:54;;;;;;;0.22;0.22;;;2.00;89.20;;;;;;4983422;28;20035;-67
2024/01/20 11:40:21;;;;;;;0.43;0.43;;;2.00;89.40;;;;;;4987712;28;20062;-67
2024/01/20 11:42:47;;;;;;;2.13;1.10;;;2.10;89.20;;;;;;4985974;28;20088;-68
2024/01/20 11:45:13;;;;;;;0.10;0.10;;;2.10;89.10;;;;;;4985470;28;20904;-68
2024/01/20 11:47:40;;;;;;;0.10;0.10;;;2.10;89.10;;;;;;4986162;28;20042;-67
2024/01/20 11:50:06;;;;;;;1.30;1.25;;;2.10;89.10;;;;;;4985326;28;20050;-68
2024/01/20 11:52:32;;;;;;;0.10;0.10;;;2.10;89.10;;;;;;4983025;28;20062;-68
2024/01/20 11:54:58;;;;;;;0.00;0.00;;;2.10;89.00;;;;;;4989830;28;20105;-68
2024/01/20 11:57:26;;;;;;;0.00;0.00;;;2.20;88.90;;;;;;4990106;28;20128;-69
2024/01/20 11:59:56;;;;;;;0.17;0.17;;;2.20;88.90;;;;;;4986703;28;20874;-68
2024/01/20 12:02:22;;;;;;;1.15;1.10;;;2.10;89.10;;;;;;4996975;28;20494;-67
2024/01/20 12:04:48;;;;;;;0.32;0.32;;;2.20;89.00;;;;;;4987398;28;20038;-68
2024/01/20 12:07:14;;;;;;;0.10;0.10;;;2.10;88.90;;;;;;4998880;28;20104;-68
2024/01/20 12:09:46;;;;;;;0.20;0.20;;;2.10;89.00;;;;;;5007426;28;20510;-68
2024/01/20 12:12:13;;;;;;;0.20;0.20;;;2.20;89.10;;;;;;5007947;28;20056;-68
2024/01/20 12:14:41;;;;;;;0.20;0.20;;;2.20;89.00;;;;;;5008722;28;20410;-68
2024/01/20 12:17:08;;;;;;;0.00;0.00;;;2.20;88.80;;;;;;4992070;28;20431;-68
2024/01/20 12:19:35;;;;;;;0.03;0.03;;;2.20;88.90;;;;;;5000853;28;20060;-68
2024/01/20 12:22:02;;;;;;;1.85;1.65;;;2.20;88.60;;;;;;4996710;28;20057;-67
2024/01/20 12:24:28;;;;;;;0.38;0.32;;;2.20;88.80;;;;;;4987604;28;20054;-68
2024/01/20 12:26:54;;;;;;;0.10;0.10;;;2.30;88.50;;;;;;4988765;28;20042;-68
2024/01/20 12:29:19;;;;;;;0.10;0.10;;;2.40;88.70;;;;;;4988607;28;20050;-67
2024/01/20 12:31:46;;;;;;;0.45;0.45;;;2.30;88.30;;;;;;4987250;28;20063;-68
2024/01/20 12:34:12;;;;;;;0.20;0.20;;;2.30;88.30;;;;;;4987336;28;20053;-68
2024/01/20 12:36:37;;;;;;;0.45;0.45;;;2.40;88.30;;;;;;4987960;28;20408;-69
2024/01/20 12:39:05;;;;;;;0.57;0.57;;;2.40;88.20;;;;;;4988594;28;20451;-69
2024/01/20 12:41:32;;;;;;;0.38;0.38;;;2.30;88.10;;;;;;4988629;28;20129;-69
2024/01/20 12:43:58;;;;;;;3.65;2.58;;;2.40;87.80;;;;;;4987846;28;20116;-69
2024/01/20 12:46:24;;;;;;;0.10;0.10;;;2.30;87.80;;;;;;4987893;28;20086;-69
2024/01/20 12:48:49;;;;;;;0.00;0.00;;;2.30;87.30;;;;;;4987339;28;20113;-69
2024/01/20 12:51:15;;;;;;;0.10;0.10;;;2.30;87.50;;;;;;5003044;28;20115;-69
2024/01/20 12:53:41;;;;;;;0.10;0.10;;;2.30;87.60;;;;;;4991794;28;20046;-69